Time,TemperatureF,DewpointF,PressureIn,WindDirection,WindDirectionDegrees,WindSpeedMPH,WindSpeedGustMPH,Humidity,HourlyPrecipIn,Conditions,Clouds,dailyrainin,SolarRadiationWatts/m^2,SoftwareType,DateUTC
2013-04-02 00:00:00,22.0,6.0,-100.00,WNW,293,0.0,0.0,49,0.00,,,0.00,0.000000,,2013-04-02 05:00:00,
2013-04-02 00:23:00,22.0,6.0,-100.00,WNW,293,0.0,0.0,49,0.00,,,0.00,0.000000,,2013-04-02 05:23:00,
2013-04-02 00:32:00,22.0,6.0,-100.00,WNW,293,0.0,0.0,49,0.00,,,0.00,0.000000,,2013-04-02 05:32:00,
2013-04-02 00:43:00,22.0,6.0,-100.00,WNW,293,0.0,0.0,49,0.00,,,0.00,0.000000,,2013-04-02 05:43:00,
2013-04-02 00:52:00,22.0,6.0,-100.00,WNW,293,0.0,0.0,49,0.00,,,0.00,0.000000,,2013-04-02 05:52:00,
2013-04-02 01:00:00,22.0,7.0,-100.00,WNW,294,0.0,0.0,52,0.00,,,0.00,0.000000,,2013-04-02 06:00:00,
2013-04-02 01:22:00,22.0,7.0,-100.00,WNW,294,0.0,0.0,52,0.00,,,0.00,0.000000,,2013-04-02 06:22:00,
2013-04-02 01:32:00,22.0,7.0,-100.00,WNW,294,0.0,0.0,52,0.00,,,0.00,0.000000,,2013-04-02 06:32:00,
2013-04-02 01:42:00,22.0,7.0,-100.00,WNW,294,0.0,0.0,52,0.00,,,0.00,0.000000,,2013-04-02 06:42:00,
2013-04-02 01:52:00,22.0,7.0,-100.00,WNW,294,0.0,0.0,52,0.00,,,0.00,0.000000,,2013-04-02 06:52:00,
2013-04-02 02:00:00,21.0,7.0,-100.00,WNW,284,0.0,0.0,55,0.00,,,0.00,0.000000,,2013-04-02 07:00:00,
2013-04-02 02:32:00,21.0,7.0,-100.00,WNW,284,0.0,0.0,55,0.00,,,0.00,0.000000,,2013-04-02 07:32:00,
2013-04-02 02:43:00,21.0,7.0,-100.00,WNW,284,0.0,0.0,55,0.00,,,0.00,0.000000,,2013-04-02 07:43:00,
2013-04-02 02:53:00,21.0,7.0,-100.00,WNW,284,0.0,0.0,55,0.00,,,0.00,0.000000,,2013-04-02 07:53:00,
2013-04-02 03:00:00,20.0,8.0,-100.00,WNW,288,0.0,0.0,58,0.00,,,0.00,0.000000,,2013-04-02 08:00:00,
2013-04-02 03:32:00,20.0,8.0,-100.00,WNW,288,0.0,0.0,58,0.00,,,0.00,0.000000,,2013-04-02 08:32:00,
2013-04-02 03:43:00,20.0,8.0,-100.00,WNW,288,0.0,0.0,58,0.00,,,0.00,0.000000,,2013-04-02 08:43:00,
2013-04-02 03:52:00,20.0,8.0,-100.00,WNW,288,0.0,0.0,58,0.00,,,0.00,0.000000,,2013-04-02 08:52:00,
2013-04-02 04:00:00,18.0,7.0,-100.00,WNW,287,0.0,0.0,62,0.00,,,0.00,0.000000,,2013-04-02 09:00:00,
2013-04-02 04:33:00,18.0,7.0,-100.00,WNW,287,0.0,0.0,62,0.00,,,0.00,0.000000,,2013-04-02 09:33:00,
2013-04-02 04:43:00,18.0,7.0,-100.00,WNW,287,0.0,0.0,62,0.00,,,0.00,0.000000,,2013-04-02 09:43:00,
2013-04-02 04:53:00,18.0,7.0,-100.00,WNW,287,0.0,0.0,62,0.00,,,0.00,0.000000,,2013-04-02 09:53:00,
2013-04-02 05:00:00,16.0,7.0,-100.00,West,277,0.0,0.0,66,0.00,,,0.00,0.000000,,2013-04-02 10:00:00,
2013-04-02 05:24:00,16.0,7.0,-100.00,West,277,0.0,0.0,66,0.00,,,0.00,0.000000,,2013-04-02 10:24:00,
2013-04-02 05:33:00,16.0,7.0,-100.00,West,277,0.0,0.0,66,0.00,,,0.00,0.000000,,2013-04-02 10:33:00,
2013-04-02 05:42:00,16.0,7.0,-100.00,West,277,0.0,0.0,66,0.00,,,0.00,0.000000,,2013-04-02 10:42:00,
2013-04-02 05:52:00,16.0,7.0,-100.00,West,277,0.0,0.0,66,0.00,,,0.00,0.000000,,2013-04-02 10:52:00,
2013-04-02 06:00:00,15.0,7.0,-100.00,West,280,0.0,0.0,70,0.00,,,0.00,0.000000,,2013-04-02 11:00:00,
2013-04-02 06:33:00,15.0,7.0,-100.00,West,280,0.0,0.0,70,0.00,,,0.00,0.000000,,2013-04-02 11:33:00,
2013-04-02 06:43:00,15.0,7.0,-100.00,West,280,0.0,0.0,70,0.00,,,0.00,0.000000,,2013-04-02 11:43:00,
2013-04-02 06:53:00,15.0,7.0,-100.00,West,280,0.0,0.0,70,0.00,,,0.00,0.000000,,2013-04-02 11:53:00,
2013-04-02 07:00:00,13.0,6.0,-100.00,WNW,293,0.0,0.0,73,0.00,,,0.00,5.000000,,2013-04-02 12:00:00,
2013-04-02 07:32:00,13.0,6.0,-100.00,WNW,293,0.0,0.0,73,0.00,,,0.00,5.000000,,2013-04-02 12:32:00,
2013-04-02 07:42:00,13.0,6.0,-100.00,WNW,293,0.0,0.0,73,0.00,,,0.00,5.000000,,2013-04-02 12:42:00,
2013-04-02 07:53:00,13.0,6.0,-100.00,WNW,293,0.0,0.0,73,0.00,,,0.00,5.000000,,2013-04-02 12:53:00,
2013-04-02 08:00:00,19.0,9.0,-100.00,WNW,288,0.0,0.0,65,0.00,,,0.00,158.000000,,2013-04-02 13:00:00,
2013-04-02 08:33:00,19.0,9.0,-100.00,WNW,288,0.0,0.0,65,0.00,,,0.00,158.000000,,2013-04-02 13:33:00,
2013-04-02 08:42:00,19.0,9.0,-100.00,WNW,288,0.0,0.0,65,0.00,,,0.00,158.000000,,2013-04-02 13:42:00,
2013-04-02 08:52:00,19.0,9.0,-100.00,WNW,288,0.0,0.0,65,0.00,,,0.00,158.000000,,2013-04-02 13:52:00,
2013-04-02 09:00:00,24.0,11.0,-100.00,NW,305,0.0,0.0,57,0.00,,,0.00,376.000000,,2013-04-02 14:00:00,
2013-04-02 09:33:00,24.0,11.0,-100.00,NW,305,0.0,0.0,57,0.00,,,0.00,376.000000,,2013-04-02 14:33:00,
2013-04-02 09:42:00,24.0,11.0,-100.00,NW,305,0.0,0.0,57,0.00,,,0.00,376.000000,,2013-04-02 14:42:00,
2013-04-02 09:52:00,24.0,11.0,-100.00,NW,305,0.0,0.0,57,0.00,,,0.00,376.000000,,2013-04-02 14:52:00,
2013-04-02 10:00:00,28.0,11.0,-100.00,NW,313,0.0,0.0,48,0.00,,,0.00,556.000000,,2013-04-02 15:00:00,
2013-04-02 10:33:00,28.0,11.0,-100.00,NW,313,0.0,0.0,48,0.00,,,0.00,556.000000,,2013-04-02 15:33:00,
2013-04-02 10:43:00,28.0,11.0,-100.00,NW,313,0.0,0.0,48,0.00,,,0.00,556.000000,,2013-04-02 15:43:00,
2013-04-02 10:58:00,28.0,11.0,-100.00,NW,313,0.0,0.0,48,0.00,,,0.00,556.000000,,2013-04-02 15:58:00,
2013-04-02 11:39:00,31.0,8.0,-100.00,NW,318,5.0,12.0,38,0.00,,,-99.99,725.000000,,2013-04-02 16:39:00,
2013-04-02 11:44:00,31.0,8.0,-100.00,NW,318,5.0,12.0,38,0.00,,,-99.99,725.000000,,2013-04-02 16:44:00,
2013-04-02 11:53:00,31.0,8.0,-100.00,NW,318,5.0,12.0,38,0.00,,,-99.99,725.000000,,2013-04-02 16:53:00,
2013-04-02 12:00:00,32.0,6.0,-100.00,NNW,331,6.0,13.0,32,0.00,,,0.00,735.000000,,2013-04-02 17:00:00,
2013-04-02 12:35:00,32.0,6.0,-100.00,NNW,331,6.0,13.0,32,0.00,,,0.00,735.000000,,2013-04-02 17:35:00,
2013-04-02 12:43:00,32.0,6.0,-100.00,NNW,331,6.0,13.0,32,0.00,,,0.00,735.000000,,2013-04-02 17:43:00,
2013-04-02 12:55:00,32.0,6.0,-100.00,NNW,331,6.0,13.0,32,0.00,,,0.00,735.000000,,2013-04-02 17:55:00,
2013-04-02 13:00:00,33.0,4.0,-100.00,NW,310,7.0,16.0,29,0.00,,,0.00,926.000000,,2013-04-02 18:00:00,
2013-04-02 13:35:00,33.0,4.0,-100.00,NW,310,7.0,16.0,29,0.00,,,0.00,926.000000,,2013-04-02 18:35:00,
2013-04-02 13:43:00,33.0,4.0,-100.00,NW,310,7.0,16.0,29,0.00,,,0.00,926.000000,,2013-04-02 18:43:00,
2013-04-02 13:57:00,33.0,4.0,-100.00,NW,310,7.0,16.0,29,0.00,,,0.00,926.000000,,2013-04-02 18:57:00,
2013-04-02 14:00:00,34.0,4.0,-100.00,West,265,8.0,16.0,27,0.00,,,0.00,909.000000,,2013-04-02 19:00:00,
2013-04-02 14:34:00,34.0,4.0,-100.00,West,265,8.0,16.0,27,0.00,,,0.00,909.000000,,2013-04-02 19:34:00,
2013-04-02 14:46:00,34.0,4.0,-100.00,West,265,8.0,16.0,27,0.00,,,0.00,909.000000,,2013-04-02 19:46:00,
2013-04-02 14:56:00,34.0,4.0,-100.00,West,265,8.0,16.0,27,0.00,,,0.00,909.000000,,2013-04-02 19:56:00,
2013-04-02 15:00:00,34.0,2.0,-100.00,NW,322,8.0,18.0,25,0.00,,,0.00,866.000000,,2013-04-02 20:00:00,
2013-04-02 15:34:00,34.0,2.0,-100.00,NW,322,8.0,18.0,25,0.00,,,0.00,866.000000,,2013-04-02 20:34:00,
2013-04-02 15:44:00,34.0,2.0,-100.00,NW,322,8.0,18.0,25,0.00,,,0.00,866.000000,,2013-04-02 20:44:00,
2013-04-02 15:54:00,34.0,2.0,-100.00,NW,322,8.0,18.0,25,0.00,,,0.00,866.000000,,2013-04-02 20:54:00,
2013-04-02 17:00:00,34.0,2.0,-100.00,NW,311,9.0,15.0,25,-99.99,,,0.00,547.000000,,2013-04-02 22:00:00,
2013-04-02 17:34:00,34.0,2.0,-100.00,NW,311,9.0,15.0,25,-99.99,,,0.00,547.000000,,2013-04-02 22:34:00,
2013-04-02 17:44:00,34.0,2.0,-100.00,NW,311,9.0,15.0,25,-99.99,,,0.00,547.000000,,2013-04-02 22:44:00,
2013-04-02 17:54:00,34.0,2.0,-100.00,NW,311,9.0,15.0,25,-99.99,,,0.00,547.000000,,2013-04-02 22:54:00,
2013-04-02 18:00:00,33.0,3.0,-100.00,NNW,330,7.0,15.0,27,0.00,,,0.00,341.000000,,2013-04-02 23:00:00,
2013-04-02 18:37:00,33.0,3.0,-100.00,NNW,330,7.0,15.0,27,0.00,,,0.00,341.000000,,2013-04-02 23:37:00,
2013-04-02 18:43:00,33.0,3.0,-100.00,NNW,330,7.0,15.0,27,0.00,,,0.00,341.000000,,2013-04-02 23:43:00,
2013-04-02 18:54:00,33.0,3.0,-100.00,NNW,330,7.0,15.0,27,0.00,,,0.00,341.000000,,2013-04-02 23:54:00,
2013-04-02 19:00:00,31.0,3.0,-100.00,NW,305,5.0,14.0,29,0.00,,,0.00,130.000000,,2013-04-03 00:00:00,
2013-04-02 19:34:00,31.0,3.0,-100.00,NW,305,5.0,14.0,29,0.00,,,0.00,130.000000,,2013-04-03 00:34:00,
2013-04-02 19:47:00,31.0,3.0,-100.00,NW,305,5.0,14.0,29,0.00,,,0.00,130.000000,,2013-04-03 00:47:00,
2013-04-02 19:55:00,31.0,3.0,-100.00,NW,305,5.0,14.0,29,0.00,,,0.00,130.000000,,2013-04-03 00:55:00,
2013-04-02 20:00:00,28.0,3.0,-100.00,WNW,290,3.0,12.0,33,0.00,,,0.00,9.000000,,2013-04-03 01:00:00,
2013-04-02 20:34:00,28.0,3.0,-100.00,WNW,290,3.0,12.0,33,0.00,,,0.00,9.000000,,2013-04-03 01:34:00,
2013-04-02 20:43:00,28.0,3.0,-100.00,WNW,290,3.0,12.0,33,0.00,,,0.00,9.000000,,2013-04-03 01:43:00,
2013-04-02 20:53:00,28.0,3.0,-100.00,WNW,290,3.0,12.0,33,0.00,,,0.00,9.000000,,2013-04-03 01:53:00,
2013-04-02 21:00:00,25.0,3.0,-100.00,West,275,1.0,5.0,38,0.00,,,0.00,0.000000,,2013-04-03 02:00:00,
2013-04-02 21:34:00,25.0,3.0,-100.00,West,275,1.0,5.0,38,0.00,,,0.00,0.000000,,2013-04-03 02:34:00,
2013-04-02 21:44:00,25.0,3.0,-100.00,West,275,1.0,5.0,38,0.00,,,0.00,0.000000,,2013-04-03 02:44:00,
2013-04-02 21:53:00,25.0,3.0,-100.00,West,275,1.0,5.0,38,0.00,,,0.00,0.000000,,2013-04-03 02:53:00,
2013-04-02 22:00:00,21.0,5.0,-100.00,West,262,0.0,0.0,49,0.00,,,0.00,0.000000,,2013-04-03 03:00:00,
2013-04-02 22:23:00,21.0,5.0,-100.00,West,262,0.0,0.0,49,0.00,,,0.00,0.000000,,2013-04-03 03:23:00,
2013-04-02 22:38:00,21.0,5.0,-100.00,West,262,0.0,0.0,49,0.00,,,0.00,0.000000,,2013-04-03 03:38:00,
2013-04-02 22:44:00,21.0,5.0,-100.00,West,262,0.0,0.0,49,0.00,,,0.00,0.000000,,2013-04-03 03:44:00,
2013-04-02 22:54:00,21.0,5.0,-100.00,West,262,0.0,0.0,49,0.00,,,0.00,0.000000,,2013-04-03 03:54:00,
2013-04-02 23:00:00,16.0,6.0,-100.00,WNW,303,0.0,0.0,65,0.00,,,0.00,0.000000,,2013-04-03 04:00:00,
2013-04-02 23:23:00,16.0,6.0,-100.00,WNW,303,0.0,0.0,65,0.00,,,0.00,0.000000,,2013-04-03 04:23:00,
2013-04-02 23:33:00,16.0,6.0,-100.00,WNW,303,0.0,0.0,65,0.00,,,0.00,0.000000,,2013-04-03 04:33:00,
2013-04-02 23:43:00,16.0,6.0,-100.00,WNW,303,0.0,0.0,65,0.00,,,0.00,0.000000,,2013-04-03 04:43:00,
2013-04-02 23:53:00,16.0,6.0,-100.00,WNW,303,0.0,0.0,65,0.00,,,0.00,0.000000,,2013-04-03 04:53:00,